This is the latest recevied weather packets stored in our database for station/object YO6LRV-3. If no packets are shown the sender has not sent any weather packets the latest 10 day(s).
| Time | Temp. | Humidity | Pressure | Rain* | Wind** | Luminosity | Snow |
|---|---|---|---|---|---|---|---|
| 1777842365 | 12.22° C | 37% | 1018.2 hPa | - | - | - | - |
| 1777838765 | 13.33° C | 37% | 1018.1 hPa | - | - | - | - |
| 1777835167 | 13.89° C | 36% | 1018.1 hPa | - | - | - | - |
| 1777832466 | 14.44° C | 37% | 1018 hPa | - | - | - | - |
| 1777829766 | 15° C | 39% | 1017.8 hPa | - | - | - | - |
| 1777827966 | 15.56° C | 37% | 1017.8 hPa | - | - | - | - |
| 1777824365 | 16.67° C | 35% | 1018 hPa | - | - | - | - |
| 1777822558 | 17.22° C | 35% | 1018.1 hPa | - | - | - | - |
| 1777821666 | 17.78° C | 34% | 1018.3 hPa | - | - | - | - |
| 1777817164 | 18.89° C | 32% | 1018.8 hPa | - | - | - | - |
| 1777814464 | 20° C | 31% | 1019.2 hPa | - | - | - | - |
| 1777812666 | 21.11° C | 28% | 1019.4 hPa | - | - | - | - |
| 1777811766 | 22.22° C | 29% | 1019.6 hPa | - | - | - | - |
| 1777806365 | 20° C | 34% | 1020.5 hPa | - | - | - | - |
| 1777804565 | 17.78° C | 33% | 1020.9 hPa | - | - | - | - |
| 1777802764 | 15° C | 41% | 1021.1 hPa | - | - | - | - |
| 1777800064 | 12.78° C | 43% | 1021.5 hPa | - | - | - | - |
| 1777799157 | 11.67° C | 45% | 1020.9 hPa | - | - | - | - |
| 1777798264 | 11.67° C | 45% | 1021.8 hPa | - | - | - | - |
| 1777797363 | 11.11° C | 47% | 1021.8 hPa | - | - | - | - |
| 1777796463 | 10.56° C | 48% | 1021.5 hPa | - | - | - | - |
| 1777795563 | 10.56° C | 48% | 1022.1 hPa | - | - | - | - |
| 1777794663 | 10° C | 52% | 1022 hPa | - | - | - | - |
| 1777793763 | 10° C | 54% | 1022 hPa | - | - | - | - |
| 1777792863 | 9.44° C | 55% | 1021.8 hPa | - | - | - | - |
* Rain since midnight (hover to see other rain measurements)
** Current wind speed in m/s (hover to see current wind gust speed)